createdAt,value
2017-08-27T00:00:49.795Z,77.67
2017-08-27T00:03:15.941Z,77.37
2017-08-27T00:05:41.999Z,77.54
2017-08-27T00:08:08.094Z,77.29
2017-08-27T00:10:34.161Z,77.24
2017-08-27T00:13:00.261Z,76.83
2017-08-27T00:15:26.367Z,76.66
2017-08-27T00:17:52.467Z,77.20
2017-08-27T00:20:18.652Z,77.29
2017-08-27T00:22:44.721Z,77.26
2017-08-27T00:25:10.811Z,77.26
2017-08-27T00:27:36.946Z,76.76
2017-08-27T00:30:03.009Z,76.83
2017-08-27T00:32:29.091Z,76.84
2017-08-27T00:34:55.247Z,76.89
2017-08-27T00:37:21.338Z,77.44
2017-08-27T00:39:47.440Z,77.77
2017-08-27T00:42:13.555Z,77.25
2017-08-27T00:44:39.633Z,77.37
2017-08-27T00:47:05.693Z,77.63
2017-08-27T00:49:31.812Z,77.48
2017-08-27T00:51:57.909Z,77.28
2017-08-27T00:54:23.987Z,77.53
2017-08-27T00:56:50.084Z,77.50
2017-08-27T00:59:16.173Z,77.63
2017-08-27T01:01:42.298Z,77.71
2017-08-27T01:04:08.403Z,77.91
2017-08-27T01:06:34.517Z,77.86
2017-08-27T01:09:00.688Z,77.67
2017-08-27T01:11:26.830Z,77.79
2017-08-27T01:13:52.956Z,78.00
2017-08-27T01:16:19.035Z,78.09
2017-08-27T01:18:45.155Z,78.32
2017-08-27T01:21:11.283Z,78.08
2017-08-27T01:23:37.436Z,77.98
2017-08-27T01:26:03.495Z,77.90
2017-08-27T01:28:29.569Z,77.98
2017-08-27T01:30:55.727Z,77.62
2017-08-27T01:33:21.811Z,77.68
2017-08-27T01:35:47.882Z,77.66
2017-08-27T01:38:14.021Z,77.51
2017-08-27T01:40:40.099Z,77.87
2017-08-27T01:43:06.209Z,78.14
2017-08-27T01:45:32.331Z,77.89
2017-08-27T01:47:58.461Z,77.66
2017-08-27T01:50:24.588Z,77.74
2017-08-27T01:52:50.710Z,77.96
2017-08-27T01:55:16.784Z,78.46
2017-08-27T01:57:42.882Z,78.87
2017-08-27T02:00:08.949Z,79.08
2017-08-27T02:02:35.038Z,78.87
2017-08-27T02:05:01.154Z,78.99
2017-08-27T02:07:27.225Z,79.09
2017-08-27T02:09:53.325Z,79.33
2017-08-27T02:12:19.449Z,79.43
2017-08-27T02:14:45.574Z,79.29
2017-08-27T02:17:11.669Z,79.56
2017-08-27T02:19:37.785Z,79.67
2017-08-27T02:22:03.903Z,79.55
2017-08-27T02:24:29.984Z,79.54
2017-08-27T02:26:56.093Z,79.37
2017-08-27T02:29:22.173Z,78.53
2017-08-27T02:31:48.248Z,78.92
2017-08-27T02:34:14.361Z,79.63
2017-08-27T02:36:40.436Z,79.59
2017-08-27T02:39:06.526Z,79.06
2017-08-27T02:41:32.633Z,78.58
2017-08-27T02:43:58.702Z,79.10
2017-08-27T02:46:24.792Z,79.14
2017-08-27T02:48:50.878Z,78.97
2017-08-27T02:51:16.968Z,78.46
2017-08-27T02:53:43.217Z,78.68
2017-08-27T02:56:09.310Z,78.70
2017-08-27T02:58:35.382Z,78.67
2017-08-27T03:01:01.464Z,78.83
2017-08-27T03:03:27.530Z,78.66
2017-08-27T03:05:53.632Z,78.45
2017-08-27T03:08:19.742Z,78.20
2017-08-27T03:10:45.827Z,77.58
2017-08-27T03:13:11.952Z,76.81
2017-08-27T03:15:38.024Z,77.04
2017-08-27T03:18:04.143Z,77.02
2017-08-27T03:20:30.218Z,77.08
2017-08-27T03:22:56.273Z,77.29
2017-08-27T03:25:22.373Z,77.25
2017-08-27T03:27:48.434Z,77.93
2017-08-27T03:30:14.522Z,77.25
2017-08-27T03:32:40.600Z,76.73
2017-08-27T03:35:06.693Z,76.83
2017-08-27T03:37:32.778Z,76.90
2017-08-27T03:39:58.921Z,76.11
2017-08-27T03:42:25.007Z,75.94
2017-08-27T03:44:51.103Z,75.56
2017-08-27T03:47:17.228Z,75.76
2017-08-27T03:49:43.323Z,75.76
2017-08-27T03:52:09.452Z,75.94
2017-08-27T03:54:35.560Z,75.53
2017-08-27T03:57:01.640Z,75.42
2017-08-27T03:59:27.758Z,75.71
2017-08-27T04:01:53.894Z,75.41
2017-08-27T04:04:20.004Z,75.64
2017-08-27T04:06:46.104Z,75.56
2017-08-27T04:09:12.226Z,75.17
2017-08-27T04:11:38.285Z,75.90
2017-08-27T04:14:04.374Z,75.43
2017-08-27T04:16:30.443Z,75.60
2017-08-27T04:18:56.564Z,75.22
2017-08-27T04:21:22.628Z,75.16
2017-08-27T04:23:48.687Z,75.00
2017-08-27T04:26:14.914Z,74.92
2017-08-27T04:28:41.086Z,74.81
2017-08-27T04:31:07.158Z,74.46
2017-08-27T04:33:33.272Z,74.23
2017-08-27T04:35:59.352Z,74.17
2017-08-27T04:38:25.487Z,74.84
2017-08-27T04:40:51.605Z,74.38
2017-08-27T04:43:17.724Z,73.80
2017-08-27T04:45:43.820Z,74.10
2017-08-27T04:48:09.978Z,73.82
2017-08-27T04:50:36.082Z,73.67
2017-08-27T04:53:02.164Z,73.86
2017-08-27T04:55:28.279Z,74.04
2017-08-27T04:57:54.414Z,73.98
2017-08-27T05:00:20.510Z,74.11
2017-08-27T05:02:46.580Z,73.35
2017-08-27T05:05:12.716Z,72.50
2017-08-27T05:07:38.896Z,71.49
2017-08-27T05:10:04.984Z,71.93
2017-08-27T05:12:31.086Z,71.28
2017-08-27T05:14:57.210Z,71.93
2017-08-27T05:17:23.340Z,71.48
2017-08-27T05:19:49.458Z,71.46
2017-08-27T05:22:15.525Z,70.12
2017-08-27T05:24:41.643Z,70.35
2017-08-27T05:27:07.813Z,69.88
2017-08-27T05:29:33.905Z,70.22
2017-08-27T05:32:00.090Z,68.57
2017-08-27T05:34:26.203Z,68.51
2017-08-27T05:36:52.253Z,69.43
2017-08-27T05:39:18.393Z,69.96
2017-08-27T05:41:44.511Z,70.41
2017-08-27T05:44:10.625Z,69.98
2017-08-27T05:46:36.729Z,68.98
2017-08-27T05:49:02.854Z,67.62
2017-08-27T05:51:28.966Z,66.68
2017-08-27T05:53:55.055Z,66.09
2017-08-27T05:56:21.141Z,65.37
2017-08-27T05:58:47.263Z,65.23
2017-08-27T06:01:13.336Z,65.66
2017-08-27T06:03:39.413Z,66.20
2017-08-27T06:06:05.519Z,66.45
2017-08-27T06:08:31.615Z,66.26
2017-08-27T06:10:57.737Z,66.25
2017-08-27T06:13:23.857Z,66.86
2017-08-27T06:15:49.939Z,67.97
2017-08-27T06:18:16.075Z,68.43
2017-08-27T06:20:42.210Z,68.64
2017-08-27T06:23:08.321Z,67.55
2017-08-27T06:25:34.928Z,67.72
2017-08-27T06:28:01.093Z,67.42
2017-08-27T06:30:27.303Z,67.68
2017-08-27T06:32:53.358Z,68.59
2017-08-27T06:35:19.509Z,68.28
2017-08-27T06:37:45.638Z,67.92
2017-08-27T06:40:11.743Z,67.34
2017-08-27T06:42:37.826Z,66.68
2017-08-27T06:45:03.963Z,65.34
2017-08-27T06:47:30.871Z,64.81
2017-08-27T06:49:56.958Z,65.89
2017-08-27T06:52:23.101Z,64.16
2017-08-27T06:54:49.237Z,64.23
2017-08-27T06:57:15.345Z,63.49
2017-08-27T06:59:41.439Z,63.55
2017-08-27T07:02:07.707Z,65.89
2017-08-27T07:04:34.190Z,65.55
2017-08-27T07:07:00.304Z,65.82
2017-08-27T07:09:26.427Z,65.46
2017-08-27T07:11:52.521Z,64.12
2017-08-27T07:14:18.650Z,64.14
2017-08-27T07:16:44.737Z,62.54
2017-08-27T07:19:10.828Z,61.80
2017-08-27T07:21:36.984Z,60.97
2017-08-27T07:24:03.105Z,61.59
2017-08-27T07:26:29.269Z,61.81
2017-08-27T07:28:55.441Z,62.83
2017-08-27T07:31:21.530Z,61.13
2017-08-27T07:33:47.609Z,58.78
2017-08-27T07:36:13.723Z,58.19
2017-08-27T07:38:39.803Z,57.11
2017-08-27T07:41:05.880Z,58.29
2017-08-27T07:43:32.116Z,58.01
2017-08-27T07:45:58.257Z,59.47
2017-08-27T07:48:24.371Z,59.99
2017-08-27T07:50:50.494Z,57.07
2017-08-27T07:53:16.604Z,56.64
2017-08-27T07:55:42.695Z,55.58
2017-08-27T07:58:08.916Z,56.39
2017-08-27T08:00:34.991Z,56.86
2017-08-27T08:03:01.120Z,57.16
2017-08-27T08:05:27.229Z,55.64
2017-08-27T08:07:53.351Z,56.51
2017-08-27T08:10:19.488Z,54.76
2017-08-27T08:12:45.664Z,54.76
2017-08-27T08:15:11.842Z,53.98
2017-08-27T08:17:37.969Z,56.88
2017-08-27T08:20:04.066Z,55.26
2017-08-27T08:22:30.199Z,55.58
2017-08-27T08:24:56.294Z,53.49
2017-08-27T08:27:22.409Z,53.75
2017-08-27T08:29:48.517Z,54.86
2017-08-27T08:32:14.648Z,55.42
2017-08-27T08:34:40.731Z,53.30
2017-08-27T08:37:06.861Z,52.42
2017-08-27T08:39:33.023Z,51.15
2017-08-27T08:41:59.170Z,51.64
2017-08-27T08:44:25.686Z,50.35
2017-08-27T08:46:51.934Z,50.72
2017-08-27T08:49:18.018Z,50.70
2017-08-27T08:51:44.173Z,50.92
2017-08-27T08:54:10.265Z,49.36
2017-08-27T08:56:36.429Z,47.92
2017-08-27T08:59:02.555Z,47.97
2017-08-27T09:01:28.682Z,47.09
2017-08-27T09:03:54.806Z,46.61
2017-08-27T09:06:21.666Z,46.12
2017-08-27T09:08:47.798Z,47.04
2017-08-27T09:11:13.892Z,47.30
2017-08-27T09:13:39.965Z,45.70
2017-08-27T09:16:06.052Z,45.28
2017-08-27T09:18:32.136Z,45.51
2017-08-27T09:20:58.324Z,43.53
2017-08-27T09:23:24.450Z,41.91
2017-08-27T09:25:50.555Z,41.03
2017-08-27T09:28:16.685Z,41.88
2017-08-27T09:30:42.808Z,43.09
2017-08-27T09:33:08.903Z,43.25
2017-08-27T09:35:35.068Z,41.03
2017-08-27T09:38:01.185Z,40.74
2017-08-27T09:40:27.266Z,41.96
2017-08-27T09:42:53.371Z,40.69
2017-08-27T09:45:19.621Z,40.90
2017-08-27T09:47:45.729Z,40.12
2017-08-27T09:50:11.804Z,39.30
2017-08-27T09:52:37.946Z,41.37
2017-08-27T09:55:04.072Z,40.85
2017-08-27T09:57:30.172Z,39.19
2017-08-27T09:59:56.269Z,40.66
2017-08-27T10:02:22.398Z,41.43
2017-08-27T10:04:48.536Z,41.96
2017-08-27T10:07:14.641Z,41.34
2017-08-27T10:09:40.826Z,39.68
2017-08-27T10:12:06.907Z,41.51
2017-08-27T10:14:33.088Z,40.35
2017-08-27T10:16:59.210Z,40.52
2017-08-27T10:19:25.486Z,41.53
2017-08-27T10:21:51.606Z,40.72
2017-08-27T10:24:17.854Z,40.19
2017-08-27T10:26:43.944Z,39.41
2017-08-27T10:29:10.051Z,37.74
2017-08-27T10:31:36.286Z,39.10
2017-08-27T10:34:02.425Z,39.66
2017-08-27T10:36:29.258Z,39.39
2017-08-27T10:38:55.345Z,39.16
2017-08-27T10:41:21.435Z,39.85
2017-08-27T10:43:48.324Z,40.07
2017-08-27T10:46:15.313Z,38.86
2017-08-27T10:48:41.389Z,39.00
2017-08-27T10:51:07.507Z,37.31
2017-08-27T10:53:33.637Z,37.41
2017-08-27T10:56:00.593Z,36.73
2017-08-27T10:58:26.753Z,38.65
2017-08-27T11:00:52.864Z,37.31
2017-08-27T11:03:18.942Z,35.90
2017-08-27T11:05:45.091Z,35.58
2017-08-27T11:08:11.149Z,37.08
2017-08-27T11:10:37.253Z,35.63
2017-08-27T11:13:03.400Z,34.96
2017-08-27T11:15:29.487Z,35.59
2017-08-27T11:17:56.037Z,36.93
2017-08-27T11:20:26.432Z,38.56
2017-08-27T11:22:52.793Z,37.63
2017-08-27T11:25:18.875Z,38.71
2017-08-27T11:27:44.938Z,38.24
2017-08-27T11:30:11.091Z,37.93
2017-08-27T11:32:37.210Z,35.69
2017-08-27T11:35:03.324Z,35.58
2017-08-27T11:37:36.072Z,36.25
2017-08-27T11:40:02.529Z,35.35
2017-08-27T11:42:28.646Z,35.03
2017-08-27T11:44:54.739Z,34.33
2017-08-27T11:47:20.828Z,36.35
2017-08-27T11:49:46.921Z,35.30
2017-08-27T11:52:13.115Z,34.43
2017-08-27T11:54:39.179Z,30.84
2017-08-27T11:57:05.277Z,27.81
2017-08-27T11:59:31.431Z,29.09
2017-08-27T12:01:57.530Z,30.96
2017-08-27T12:04:23.629Z,29.43
2017-08-27T12:06:49.748Z,27.42
2017-08-27T12:09:15.839Z,25.69
2017-08-27T12:11:42.017Z,26.41
2017-08-27T12:14:08.153Z,22.36
2017-08-27T12:16:34.267Z,22.26
2017-08-27T12:19:00.358Z,19.94
2017-08-27T12:21:26.523Z,18.52
2017-08-27T12:23:52.861Z,17.21
2017-08-27T12:26:19.158Z,21.16
2017-08-27T12:28:45.285Z,19.98
2017-08-27T12:31:11.401Z,20.99
2017-08-27T12:33:37.561Z,25.48
2017-08-27T12:36:03.655Z,22.82
2017-08-27T12:38:29.787Z,21.35
2017-08-27T12:40:55.913Z,22.38
2017-08-27T12:43:22.004Z,25.98
2017-08-27T12:45:48.085Z,27.20
2017-08-27T12:48:14.210Z,29.47
2017-08-27T12:50:40.295Z,29.14
2017-08-27T12:53:06.401Z,30.18
2017-08-27T12:55:32.629Z,32.10
2017-08-27T12:57:58.720Z,31.88
2017-08-27T13:00:24.786Z,32.21
2017-08-27T13:02:50.903Z,34.43
2017-08-27T13:05:16.999Z,34.01
2017-08-27T13:07:43.092Z,34.68
2017-08-27T13:10:09.203Z,31.45
2017-08-27T13:12:35.478Z,27.25
2017-08-27T13:15:01.642Z,28.18
2017-08-27T13:17:27.731Z,25.55
2017-08-27T13:19:53.852Z,22.39
2017-08-27T13:22:19.979Z,20.30
2017-08-27T13:24:46.056Z,19.28
2017-08-27T13:27:12.193Z,18.77
2017-08-27T13:29:38.286Z,17.79
2017-08-27T13:32:04.377Z,16.50
2017-08-27T13:34:30.490Z,16.85
2017-08-27T13:36:56.635Z,17.46
2017-08-27T13:39:22.734Z,16.48
2017-08-27T13:41:48.823Z,14.24
2017-08-27T13:44:15.017Z,14.69
2017-08-27T13:46:41.273Z,16.54
2017-08-27T13:49:07.402Z,19.63
2017-08-27T13:51:33.514Z,20.13
2017-08-27T13:53:59.709Z,19.24
2017-08-27T13:56:25.805Z,16.70
2017-08-27T13:58:51.901Z,21.13
2017-08-27T14:01:18.016Z,23.75
2017-08-27T14:03:44.135Z,28.29
2017-08-27T14:06:10.228Z,27.80
2017-08-27T14:08:36.336Z,28.31
2017-08-27T14:11:02.491Z,24.47
2017-08-27T14:13:28.649Z,20.93
2017-08-27T14:15:54.772Z,17.66
2017-08-27T14:18:20.855Z,17.84
2017-08-27T14:20:47.029Z,18.21
2017-08-27T14:23:13.408Z,17.87
2017-08-27T14:25:39.496Z,15.54
2017-08-27T14:28:05.614Z,14.78
2017-08-27T14:30:31.694Z,14.50
2017-08-27T14:32:57.806Z,14.26
2017-08-27T14:35:23.918Z,15.62
2017-08-27T14:37:51.109Z,15.70
2017-08-27T14:40:17.242Z,14.79
2017-08-27T14:42:43.328Z,16.07
2017-08-27T14:45:09.508Z,14.21
2017-08-27T14:47:35.565Z,14.69
2017-08-27T14:50:01.702Z,15.82
2017-08-27T14:52:27.818Z,15.85
2017-08-27T14:54:53.919Z,16.76
2017-08-27T14:57:20.082Z,16.49
2017-08-27T14:59:46.196Z,16.41
2017-08-27T15:02:12.307Z,16.02
2017-08-27T15:04:38.549Z,16.39
2017-08-27T15:07:04.631Z,15.08
2017-08-27T15:09:30.811Z,14.72
2017-08-27T15:11:57.095Z,13.40
2017-08-27T15:14:23.197Z,12.72
2017-08-27T15:16:49.362Z,13.13
2017-08-27T15:19:15.702Z,13.51
2017-08-27T15:21:41.823Z,15.19
2017-08-27T15:24:07.968Z,14.78
2017-08-27T15:26:34.117Z,14.26
2017-08-27T15:29:00.286Z,14.41
2017-08-27T15:31:26.376Z,14.28
2017-08-27T15:33:52.548Z,12.68
2017-08-27T15:36:18.791Z,12.21
2017-08-27T15:38:44.875Z,12.69
2017-08-27T15:41:11.245Z,12.81
2017-08-27T15:43:37.399Z,14.13
2017-08-27T15:46:03.583Z,14.41
2017-08-27T15:48:29.825Z,16.19
2017-08-27T15:51:03.306Z,17.25
2017-08-27T15:53:29.439Z,18.87
2017-08-27T15:55:55.646Z,18.65
2017-08-27T15:58:21.883Z,17.46
2017-08-27T16:00:47.998Z,17.61
2017-08-27T16:03:14.105Z,17.77
2017-08-27T16:05:40.258Z,18.46
2017-08-27T16:08:06.398Z,18.53
2017-08-27T16:10:32.523Z,19.29
2017-08-27T16:12:58.677Z,23.27
2017-08-27T16:15:24.804Z,25.04
2017-08-27T16:17:50.926Z,25.91
2017-08-27T16:20:17.468Z,28.13
2017-08-27T16:22:43.704Z,27.94
2017-08-27T16:25:09.820Z,25.54
2017-08-27T16:27:35.951Z,24.06
2017-08-27T16:30:02.177Z,23.60
2017-08-27T16:32:28.263Z,23.27
2017-08-27T16:34:54.617Z,23.86
2017-08-27T16:37:20.763Z,25.68
2017-08-27T16:39:46.979Z,26.47
2017-08-27T16:42:13.096Z,28.74
2017-08-27T16:44:39.347Z,30.41
2017-08-27T16:50:16.872Z,31.09
2017-08-27T16:52:43.003Z,30.54
2017-08-27T16:55:09.112Z,31.57
2017-08-27T16:57:35.339Z,32.40
2017-08-27T17:00:02.509Z,33.79
2017-08-27T17:02:28.762Z,34.23
2017-08-27T17:04:54.886Z,35.80
2017-08-27T17:07:21.043Z,36.73
2017-08-27T17:09:47.301Z,36.49
2017-08-27T17:12:13.528Z,36.66
2017-08-27T17:14:39.676Z,37.15
2017-08-27T17:17:20.849Z,37.56
2017-08-27T17:19:46.980Z,38.75
2017-08-27T17:22:13.166Z,38.82
2017-08-27T17:24:39.465Z,38.56
2017-08-27T17:27:05.627Z,39.05
2017-08-27T17:29:31.739Z,39.29
2017-08-27T17:31:57.859Z,39.48
2017-08-27T17:34:24.052Z,39.18
2017-08-27T17:36:50.260Z,38.81
2017-08-27T17:39:16.474Z,38.88
2017-08-27T17:41:42.589Z,38.83
2017-08-27T17:44:08.747Z,39.15
2017-08-27T17:46:34.963Z,39.45
2017-08-27T17:49:01.231Z,39.37
2017-08-27T17:51:27.398Z,39.89
2017-08-27T17:53:53.548Z,40.30
2017-08-27T17:56:19.781Z,40.58
2017-08-27T17:58:46.009Z,41.64
2017-08-27T18:01:12.348Z,41.49
2017-08-27T18:03:38.641Z,42.24
2017-08-27T18:06:04.796Z,42.02
2017-08-27T18:08:31.145Z,42.50
2017-08-27T18:10:57.419Z,42.25
2017-08-27T18:13:23.651Z,42.15
2017-08-27T18:15:50.007Z,42.57
2017-08-27T18:18:16.171Z,42.14
2017-08-27T18:20:42.465Z,42.12
2017-08-27T18:23:08.628Z,42.37
2017-08-27T18:25:34.871Z,41.83
2017-08-27T18:28:01.035Z,42.10
2017-08-27T18:30:27.233Z,42.41
2017-08-27T18:32:53.423Z,41.81
2017-08-27T18:35:19.549Z,42.26
2017-08-27T18:37:46.151Z,41.89
2017-08-27T18:40:12.377Z,42.48
2017-08-27T18:42:45.365Z,42.84
2017-08-27T18:45:11.464Z,43.07
2017-08-27T18:47:37.563Z,43.56
2017-08-27T18:50:03.891Z,43.74
2017-08-27T18:52:29.949Z,43.72
2017-08-27T18:54:56.033Z,43.91
2017-08-27T18:57:22.157Z,43.95
2017-08-27T18:59:48.243Z,44.04
2017-08-27T19:02:14.387Z,44.06
2017-08-27T19:04:40.938Z,44.06
2017-08-27T19:07:07.043Z,43.93
2017-08-27T19:09:33.172Z,44.15
2017-08-27T19:11:59.549Z,44.34
2017-08-27T19:14:26.761Z,44.21
2017-08-27T19:16:57.179Z,44.28
2017-08-27T19:19:23.523Z,44.79
2017-08-27T19:21:49.655Z,44.88
2017-08-27T19:24:15.751Z,44.77
2017-08-27T19:26:41.881Z,44.30
2017-08-27T19:29:11.298Z,45.04
2017-08-27T19:31:37.414Z,44.88
2017-08-27T19:34:03.560Z,45.62
2017-08-27T19:36:29.705Z,45.36
2017-08-27T19:38:55.813Z,45.60
2017-08-27T19:41:22.042Z,45.94
2017-08-27T19:43:48.147Z,45.86
2017-08-27T19:46:14.266Z,45.73
2017-08-27T19:48:40.416Z,46.68
2017-08-27T19:51:06.622Z,46.19
2017-08-27T19:53:32.704Z,47.66
2017-08-27T19:55:58.862Z,47.98
2017-08-27T19:58:25.044Z,48.86
2017-08-27T20:00:51.164Z,48.98
2017-08-27T20:03:17.398Z,49.65
2017-08-27T20:05:43.640Z,49.73
2017-08-27T20:08:09.771Z,49.93
2017-08-27T20:10:35.888Z,50.26
2017-08-27T20:13:02.055Z,50.57
2017-08-27T20:15:28.166Z,50.68
2017-08-27T20:17:54.300Z,51.26
2017-08-27T20:20:20.404Z,51.11
2017-08-27T20:22:46.534Z,51.02
2017-08-27T20:25:12.688Z,51.29
2017-08-27T20:27:38.812Z,51.16
2017-08-27T20:30:05.178Z,50.69
2017-08-27T20:32:31.303Z,50.53
2017-08-27T20:34:57.428Z,49.98
2017-08-27T20:37:23.549Z,49.42
2017-08-27T20:39:49.640Z,49.44
2017-08-27T20:42:15.742Z,49.21
2017-08-27T20:44:41.862Z,48.87
2017-08-27T20:47:07.964Z,49.02
2017-08-27T20:49:34.048Z,48.95
2017-08-27T20:52:00.152Z,48.96
2017-08-27T20:54:26.314Z,48.56
2017-08-27T20:56:52.464Z,48.92
2017-08-27T20:59:18.575Z,48.99
2017-08-27T21:01:44.710Z,49.04
2017-08-27T21:04:10.805Z,49.02
2017-08-27T21:06:36.984Z,49.17
2017-08-27T21:09:03.100Z,49.19
2017-08-27T21:11:29.220Z,49.42
2017-08-27T21:13:55.378Z,49.52
2017-08-27T21:16:21.466Z,49.23
2017-08-27T21:18:47.556Z,49.42
2017-08-27T21:21:13.716Z,50.07
2017-08-27T21:23:39.862Z,50.79
2017-08-27T21:26:05.969Z,51.92
2017-08-27T21:28:32.114Z,52.41
2017-08-27T21:30:58.253Z,52.56
2017-08-27T21:33:24.360Z,52.38
2017-08-27T21:35:50.453Z,52.10
2017-08-27T21:38:16.554Z,52.37
2017-08-27T21:40:42.686Z,52.47
2017-08-27T21:43:08.818Z,52.25
2017-08-27T21:45:34.932Z,52.83
2017-08-27T21:48:01.058Z,53.11
2017-08-27T21:50:27.162Z,52.60
2017-08-27T21:52:53.546Z,52.50
2017-08-27T21:55:19.650Z,52.47
2017-08-27T21:57:45.776Z,52.64
2017-08-27T22:00:11.884Z,53.04
2017-08-27T22:02:38.029Z,53.77
2017-08-27T22:05:04.966Z,53.86
2017-08-27T22:07:31.058Z,53.65
2017-08-27T22:09:57.201Z,53.33
2017-08-27T22:12:23.291Z,53.31
2017-08-27T22:14:49.375Z,53.79
2017-08-27T22:17:15.503Z,53.79
2017-08-27T22:19:41.601Z,54.18
2017-08-27T22:22:07.680Z,54.44
2017-08-27T22:24:33.823Z,55.25
2017-08-27T22:26:59.948Z,55.27
2017-08-27T22:29:26.070Z,54.94
2017-08-27T22:31:52.207Z,54.75
2017-08-27T22:34:18.360Z,54.74
2017-08-27T22:36:44.475Z,54.98
2017-08-27T22:39:10.627Z,54.71
2017-08-27T22:41:36.747Z,54.53
2017-08-27T22:44:02.879Z,54.61
2017-08-27T22:46:29.005Z,54.97
2017-08-27T22:48:55.120Z,54.58
2017-08-27T22:51:21.242Z,54.52
2017-08-27T22:53:47.422Z,54.78
2017-08-27T22:56:13.545Z,54.56
2017-08-27T22:58:39.637Z,54.91
2017-08-27T23:01:05.762Z,54.89
2017-08-27T23:03:31.855Z,55.00
2017-08-27T23:05:58.009Z,55.31
2017-08-27T23:08:24.095Z,55.69
2017-08-27T23:10:50.216Z,55.17
2017-08-27T23:13:16.332Z,55.42
2017-08-27T23:15:42.396Z,55.77
2017-08-27T23:18:08.511Z,55.94
2017-08-27T23:20:34.637Z,56.41
2017-08-27T23:23:00.726Z,56.11
2017-08-27T23:25:26.815Z,56.28
2017-08-27T23:27:52.913Z,56.46
2017-08-27T23:30:19.033Z,56.58
2017-08-27T23:32:45.115Z,56.48
2017-08-27T23:35:11.260Z,56.62
2017-08-27T23:37:37.367Z,56.44
2017-08-27T23:40:03.456Z,56.96
2017-08-27T23:42:29.583Z,57.13
2017-08-27T23:44:55.691Z,57.18
2017-08-27T23:47:21.807Z,57.37
2017-08-27T23:49:47.885Z,58.68
2017-08-27T23:52:13.963Z,57.50
2017-08-27T23:54:40.104Z,57.23
2017-08-27T23:57:06.199Z,58.72
2017-08-27T23:59:32.323Z,58.46
